This is the latest recevied weather packets stored in our database for station/object W4RJG. If no packets are shown the sender has not sent any weather packets the latest 10 day(s).
| Time | Temp. | Humidity | Pressure | Rain* | Wind** | Luminosity | Snow |
|---|---|---|---|---|---|---|---|
| 1777446005 | 17.22° C | 83% | 1005.4 hPa | 0 mm | - | 0 W/m² | - |
| 1777444806 | 17.22° C | 83% | 1005.4 hPa | 0 mm | - | 0 W/m² | - |
| 1777443605 | 17.22° C | 83% | 1005.4 hPa | 0 mm | - | 0 W/m² | - |
| 1777438805 | 17.22° C | 83% | 1005.4 hPa | 0 mm | - | 0 W/m² | - |
| 1777435221 | 17.22° C | 83% | 1005.4 hPa | 0 mm | - | 0 W/m² | - |
| 1777430424 | 17.22° C | 83% | 1005.4 hPa | 0 mm | - | 0 W/m² | - |
| 1777426206 | 17.22° C | 83% | 1005.4 hPa | 0 mm | - | 0 W/m² | - |
| 1777425604 | 17.22° C | 83% | 1005.4 hPa | 0 mm | - | 0 W/m² | - |
| 1777422003 | 17.22° C | 83% | 1005.4 hPa | 0 mm | - | 0 W/m² | - |
| 1777417804 | 17.22° C | 83% | 1005.8 hPa | 0 mm | - | 0 W/m² | - |
| 1777414805 | 17.78° C | 81% | 1006.4 hPa | 0 mm | - | 0 W/m² | - |
| 1777412404 | 17.78° C | 81% | 1006.4 hPa | 0 mm | - | 0 W/m² | - |
| 1777405204 | 17.22° C | 82% | 1007.5 hPa | 0 mm | - | 0 W/m² | - |
| 1777402803 | 16.11° C | 82% | 1008.1 hPa | 0 mm | - | 0 W/m² | - |
| 1777399804 | 15.56° C | 84% | 1008.8 hPa | 0 mm | - | 0 W/m² | - |
| 1777396204 | 16.11° C | 82% | 1009.1 hPa | 0 mm | - | 0 W/m² | - |
| 1777389604 | 13.89° C | 93% | 1009.1 hPa | 0 mm | - | 0 W/m² | - |
| 1777380604 | 9.44° C | 95% | 1012.5 hPa | 0.76 mm | - | 0 W/m² | - |
| 1777373404 | 8.33° C | 93% | 1013.2 hPa | 0 mm | - | 0 W/m² | - |
| 1777372805 | 7.78° C | 93% | 1013 hPa | 0 mm | - | 0 W/m² | - |
| 1777371604 | 7.22° C | 92% | 1010.8 hPa | 0 mm | - | 0 W/m² | - |
| 1777369804 | 7.78° C | 91% | 1011.2 hPa | 0 mm | - | 0 W/m² | - |
| 1777366804 | 8.33° C | 87% | 1011.9 hPa | 0 mm | - | 0 W/m² | - |
| 1777356604 | 10° C | 83% | 1012.9 hPa | 0 mm | - | 0 W/m² | - |
| 1777350604 | 11.11° C | 81% | 1012.9 hPa | 0 mm | - | 0 W/m² | - |
* Rain latest hour (hover to see other rain measurements)
** Current wind speed in m/s (hover to see current wind gust speed)